createdAt,value
2019-04-11T00:01:04.592Z,4.30
2019-04-11T00:03:33.533Z,4.30
2019-04-11T00:06:03.371Z,4.20
2019-04-11T00:08:32.385Z,4.20
2019-04-11T00:11:01.763Z,4.20
2019-04-11T00:13:33.409Z,4.20
2019-04-11T00:16:01.366Z,4.20
2019-04-11T00:18:30.380Z,4.20
2019-04-11T00:21:00.306Z,4.20
2019-04-11T00:23:30.246Z,4.10
2019-04-11T00:26:00.139Z,4.10
2019-04-11T00:28:29.914Z,4.10
2019-04-11T00:30:59.049Z,4.10
2019-04-11T00:33:27.950Z,4.10
2019-04-11T00:35:57.729Z,4.10
2019-04-11T00:38:26.662Z,4.10
2019-04-11T00:40:55.543Z,4.10
2019-04-11T00:43:31.707Z,4.10
2019-04-11T00:45:56.033Z,4.10
2019-04-11T00:48:25.919Z,4.10
2019-04-11T00:50:55.916Z,4.20
2019-04-11T00:53:25.692Z,4.10
2019-04-11T00:55:55.645Z,4.10
2019-04-11T00:58:25.664Z,4.10
2019-04-11T01:00:55.571Z,4.00
2019-04-11T01:03:24.529Z,4.00
2019-04-11T01:05:54.172Z,3.90
2019-04-11T01:08:24.171Z,3.90
2019-04-11T01:10:53.103Z,3.90
2019-04-11T01:13:22.184Z,3.90
2019-04-11T01:15:59.182Z,3.90
2019-04-11T01:18:28.178Z,3.80
2019-04-11T01:20:57.208Z,3.80
2019-04-11T01:23:27.089Z,3.80
2019-04-11T01:25:57.005Z,3.90
2019-04-11T01:28:26.821Z,3.80
2019-04-11T01:31:01.012Z,3.80
2019-04-11T01:33:29.949Z,3.90
2019-04-11T01:35:58.859Z,3.90
2019-04-11T01:38:28.519Z,4.00
2019-04-11T01:40:58.218Z,4.00
2019-04-11T01:43:28.128Z,4.00
2019-04-11T01:45:57.977Z,4.00
2019-04-11T01:48:33.283Z,4.00
2019-04-11T01:51:02.295Z,4.00
2019-04-11T01:53:31.146Z,4.00
2019-04-11T01:56:00.931Z,4.00
2019-04-11T01:58:30.876Z,4.10
2019-04-11T02:01:06.372Z,4.10
2019-04-11T02:04:03.656Z,4.10
2019-04-11T02:06:32.674Z,4.10
2019-04-11T02:09:02.032Z,4.00
2019-04-11T02:11:31.823Z,3.90
2019-04-11T02:14:10.642Z,4.00
2019-04-11T02:16:31.297Z,4.10
2019-04-11T02:19:00.158Z,4.20
2019-04-11T02:21:29.560Z,4.10
2019-04-11T02:24:15.973Z,4.10
2019-04-11T02:26:48.275Z,4.10
2019-04-11T02:29:17.336Z,4.10
2019-04-11T02:31:46.766Z,4.10
2019-04-11T02:34:19.379Z,4.20
2019-04-11T02:36:49.045Z,4.20
2019-04-11T02:39:20.273Z,4.20
2019-04-11T02:41:48.618Z,4.10
2019-04-11T02:44:30.664Z,4.20
2019-04-11T02:47:00.271Z,4.30
2019-04-11T02:49:19.342Z,4.30
2019-04-11T02:51:49.451Z,4.40
2019-04-11T02:54:21.790Z,4.40
2019-04-11T02:56:52.053Z,4.30
2019-04-11T02:59:21.560Z,4.30
2019-04-11T03:01:51.027Z,4.30
2019-04-11T03:04:22.769Z,4.40
2019-04-11T03:06:52.107Z,4.30
2019-04-11T03:09:22.034Z,4.30
2019-04-11T03:11:51.725Z,4.30
2019-04-11T03:14:20.881Z,4.30
2019-04-11T03:16:59.969Z,4.20
2019-04-11T03:19:36.122Z,4.10
2019-04-11T03:21:52.356Z,4.20
2019-04-11T03:24:24.238Z,4.20
2019-04-11T03:26:54.950Z,4.20
2019-04-11T03:29:26.706Z,4.10
2019-04-11T03:32:40.163Z,3.90
2019-04-11T03:37:24.068Z,3.90
2019-04-11T03:39:52.888Z,3.70
2019-04-11T03:42:17.267Z,3.60
2019-04-11T03:44:35.749Z,3.60
2019-04-11T03:47:16.561Z,3.60
2019-04-11T03:49:39.810Z,3.50
2019-04-11T03:52:03.650Z,3.50
2019-04-11T03:54:34.147Z,3.50
2019-04-11T03:57:03.667Z,3.40
2019-04-11T03:59:36.237Z,3.30
2019-04-11T04:02:05.809Z,3.30
2019-04-11T04:04:36.989Z,3.30
2019-04-11T04:07:06.875Z,3.20
2019-04-11T04:09:37.429Z,3.10
2019-04-11T04:12:09.438Z,3.00
2019-04-11T04:15:13.028Z,3.00
2019-04-11T04:18:03.603Z,3.00
2019-04-11T04:20:49.063Z,2.90
2019-04-11T04:23:24.875Z,2.90
2019-04-11T04:25:54.559Z,2.80
2019-04-11T04:28:23.901Z,2.70
2019-04-11T04:30:53.854Z,2.70
2019-04-11T04:33:23.347Z,2.60
2019-04-11T04:35:53.168Z,2.60
2019-04-11T04:38:23.929Z,2.70
2019-04-11T04:41:07.345Z,2.70
2019-04-11T04:43:25.280Z,2.60
2019-04-11T04:46:11.563Z,2.70
2019-04-11T04:48:27.321Z,2.60
2019-04-11T04:50:58.431Z,2.70
2019-04-11T04:53:28.377Z,2.70
2019-04-11T04:55:57.566Z,2.70
2019-04-11T04:58:26.617Z,2.60
2019-04-11T05:00:56.755Z,2.60
2019-04-11T05:03:26.802Z,2.50
2019-04-11T05:05:55.911Z,2.40
2019-04-11T05:08:25.120Z,2.40
2019-04-11T05:10:55.631Z,2.40
2019-04-11T05:13:24.601Z,2.40
2019-04-11T05:16:06.883Z,2.40
2019-04-11T05:18:23.936Z,2.30
2019-04-11T05:20:52.854Z,2.30
2019-04-11T05:23:21.622Z,2.30
2019-04-11T05:25:50.845Z,2.20
2019-04-11T05:28:19.749Z,2.20
2019-04-11T05:30:49.093Z,2.30
2019-04-11T05:33:18.066Z,2.30
2019-04-11T05:35:48.009Z,2.30
2019-04-11T05:38:17.072Z,2.30
2019-04-11T05:40:46.115Z,2.30
2019-04-11T05:43:15.594Z,2.30
2019-04-11T05:45:45.585Z,2.30
2019-04-11T05:48:27.137Z,2.30
2019-04-11T05:50:56.389Z,2.30
2019-04-11T05:53:25.273Z,2.30
2019-04-11T05:55:55.212Z,2.30
2019-04-11T05:58:24.206Z,2.30
2019-04-11T06:00:59.312Z,2.30
2019-04-11T06:03:28.427Z,2.40
2019-04-11T06:06:16.537Z,2.50
2019-04-11T06:08:46.097Z,2.50
2019-04-11T06:11:26.416Z,2.60
2019-04-11T06:14:13.097Z,2.70
2019-04-11T06:16:49.479Z,2.70
2019-04-11T06:19:33.986Z,2.70
2019-04-11T06:22:06.551Z,2.80
2019-04-11T06:24:50.167Z,2.80
2019-04-11T06:27:35.953Z,2.90
2019-04-11T06:30:32.600Z,3.00
2019-04-11T06:33:16.633Z,3.00
2019-04-11T06:36:23.375Z,3.00
2019-04-11T06:39:07.721Z,3.10
2019-04-11T06:41:56.902Z,3.10
2019-04-11T06:44:34.143Z,3.20
2019-04-11T06:47:40.982Z,3.20
2019-04-11T06:50:21.164Z,3.40
2019-04-11T06:52:50.897Z,3.50
2019-04-11T06:55:28.950Z,3.50
2019-04-11T06:58:02.749Z,3.50
2019-04-11T07:00:31.650Z,3.60
2019-04-11T07:03:01.573Z,3.80
2019-04-11T07:05:33.135Z,3.80
2019-04-11T07:08:02.324Z,3.90
2019-04-11T07:10:36.804Z,4.10
2019-04-11T07:13:19.123Z,4.10
2019-04-11T07:15:50.638Z,4.30
2019-04-11T07:18:37.811Z,4.40
2019-04-11T07:21:11.594Z,4.40
2019-04-11T07:23:58.223Z,4.50
2019-04-11T07:26:44.430Z,4.60
2019-04-11T07:29:33.704Z,4.70
2019-04-11T07:32:22.242Z,4.90
2019-04-11T07:35:29.313Z,5.00
2019-04-11T07:37:58.446Z,5.20
2019-04-11T07:40:44.854Z,5.40
2019-04-11T07:43:22.551Z,5.50
2019-04-11T07:45:58.377Z,5.80
2019-04-11T07:48:30.733Z,6.00
2019-04-11T07:51:11.090Z,6.20
2019-04-11T07:53:43.731Z,6.40
2019-04-11T07:56:29.427Z,6.60
2019-04-11T07:59:00.867Z,6.70
2019-04-11T08:01:44.744Z,7.00
2019-04-11T08:04:38.681Z,7.20
2019-04-11T08:07:25.059Z,7.30
2019-04-11T08:09:59.996Z,7.30
2019-04-11T08:12:30.218Z,7.40
2019-04-11T08:15:31.457Z,7.50
2019-04-11T08:18:04.045Z,7.60
2019-04-11T08:21:01.727Z,7.90
2019-04-11T08:23:31.706Z,8.00
2019-04-11T08:26:13.682Z,7.90
2019-04-11T08:28:43.531Z,7.80
2019-04-11T08:31:47.144Z,7.70
2019-04-11T08:34:17.270Z,7.70
2019-04-11T08:37:05.310Z,7.40
2019-04-11T08:39:39.187Z,7.30
2019-04-11T08:42:42.700Z,7.00
2019-04-11T08:45:14.522Z,7.10
2019-04-11T08:47:49.288Z,7.10
2019-04-11T08:50:20.729Z,7.20
2019-04-11T08:53:14.768Z,7.30
2019-04-11T08:55:55.695Z,7.30
2019-04-11T08:58:30.854Z,7.20
2019-04-11T09:01:01.621Z,7.30
2019-04-11T09:04:04.117Z,7.50
2019-04-11T09:06:28.912Z,7.70
2019-04-11T09:09:20.924Z,8.00
2019-04-11T09:11:52.272Z,8.30
2019-04-11T09:14:40.151Z,8.60
2019-04-11T09:17:30.406Z,8.60
2019-04-11T09:20:15.634Z,8.80
2019-04-11T09:23:13.473Z,8.90
2019-04-11T09:26:13.937Z,9.00
2019-04-11T09:28:45.838Z,9.10
2019-04-11T09:31:39.917Z,9.20
2019-04-11T09:34:23.867Z,9.20
2019-04-11T09:37:17.013Z,9.40
2019-04-11T09:40:03.764Z,9.50
2019-04-11T09:42:57.994Z,9.70
2019-04-11T09:45:52.630Z,9.80
2019-04-11T09:48:29.853Z,9.90
2019-04-11T09:51:26.475Z,9.70
2019-04-11T09:54:21.096Z,9.80
2019-04-11T09:57:07.893Z,9.60
2019-04-11T09:59:54.503Z,9.60
2019-04-11T10:02:46.281Z,9.60
2019-04-11T10:05:16.601Z,9.50
2019-04-11T10:08:06.941Z,9.30
2019-04-11T10:10:53.349Z,8.90
2019-04-11T10:13:53.266Z,8.90
2019-04-11T10:16:53.225Z,8.80
2019-04-11T10:19:25.509Z,8.90
2019-04-11T10:21:59.387Z,9.20
2019-04-11T10:24:36.771Z,9.40
2019-04-11T10:27:12.298Z,9.20
2019-04-11T10:29:59.016Z,9.10
2019-04-11T10:32:31.289Z,9.00
2019-04-11T10:35:20.071Z,8.80
2019-04-11T10:37:48.371Z,8.70
2019-04-11T10:40:36.383Z,9.00
2019-04-11T10:43:05.542Z,9.10
2019-04-11T10:46:00.766Z,9.20
2019-04-11T10:48:45.092Z,9.20
2019-04-11T10:51:32.378Z,9.30
2019-04-11T10:54:02.928Z,9.50
2019-04-11T10:56:49.503Z,9.60
2019-04-11T10:59:19.495Z,9.60
2019-04-11T11:02:11.162Z,9.60
2019-04-11T11:04:43.152Z,9.30
2019-04-11T11:07:20.981Z,9.30
2019-04-11T11:09:54.669Z,9.00
2019-04-11T11:12:41.550Z,9.10
2019-04-11T11:15:13.597Z,9.10
2019-04-11T11:18:36.313Z,9.10
2019-04-11T11:20:55.103Z,9.20
2019-04-11T11:23:38.021Z,9.30
2019-04-11T11:26:22.657Z,8.90
2019-04-11T11:29:10.287Z,8.80
2019-04-11T11:31:39.023Z,8.80
2019-04-11T11:34:16.285Z,8.60
2019-04-11T11:37:03.073Z,8.60
2019-04-11T11:39:51.128Z,8.80
2019-04-11T11:42:50.554Z,8.90
2019-04-11T11:45:27.709Z,9.00
2019-04-11T11:48:13.647Z,9.00
2019-04-11T11:50:39.199Z,9.00
2019-04-11T11:53:28.085Z,8.90
2019-04-11T11:55:57.841Z,8.80
2019-04-11T11:58:45.227Z,8.70
2019-04-11T12:01:14.158Z,8.50
2019-04-11T12:04:03.374Z,8.40
2019-04-11T12:06:33.291Z,8.60
2019-04-11T12:09:20.385Z,8.80
2019-04-11T12:11:54.332Z,8.90
2019-04-11T12:15:01.452Z,9.20
2019-04-11T12:18:04.585Z,9.40
2019-04-11T12:20:42.813Z,9.60
2019-04-11T12:23:18.131Z,9.70
2019-04-11T12:25:47.364Z,9.80
2019-04-11T12:28:27.663Z,10.00
2019-04-11T12:31:03.285Z,10.10
2019-04-11T12:33:48.553Z,10.10
2019-04-11T12:36:23.603Z,10.10
2019-04-11T12:39:13.874Z,9.90
2019-04-11T12:42:13.779Z,9.90
2019-04-11T12:45:00.221Z,10.00
2019-04-11T12:47:44.060Z,9.80
2019-04-11T12:50:40.300Z,9.60
2019-04-11T12:53:17.234Z,9.60
2019-04-11T12:56:03.956Z,9.50
2019-04-11T12:58:40.476Z,9.20
2019-04-11T13:01:26.947Z,9.00
2019-04-11T13:04:17.988Z,8.80
2019-04-11T13:07:04.625Z,8.70
2019-04-11T13:09:39.641Z,8.50
2019-04-11T13:12:09.988Z,8.40
2019-04-11T13:14:54.778Z,8.40
2019-04-11T13:17:28.349Z,8.50
2019-04-11T13:20:14.921Z,8.50
2019-04-11T13:22:43.769Z,8.50
2019-04-11T13:25:23.860Z,8.60
2019-04-11T13:27:55.917Z,8.70
2019-04-11T13:30:46.707Z,8.70
2019-04-11T13:33:22.101Z,8.60
2019-04-11T13:36:16.221Z,8.60
2019-04-11T13:38:46.698Z,8.70
2019-04-11T13:41:41.441Z,8.90
2019-04-11T13:44:23.348Z,9.00
2019-04-11T13:47:04.598Z,8.90
2019-04-11T13:49:43.878Z,8.70
2019-04-11T13:52:31.921Z,8.60
2019-04-11T13:55:20.303Z,8.50
2019-04-11T13:58:08.448Z,8.40
2019-04-11T14:00:40.102Z,8.20
2019-04-11T14:03:30.897Z,8.10
2019-04-11T14:06:03.614Z,8.10
2019-04-11T14:08:50.970Z,8.10
2019-04-11T14:11:20.077Z,8.20
2019-04-11T14:16:43.525Z,8.30
2019-04-11T14:19:33.599Z,8.40
2019-04-11T14:22:04.093Z,8.10
2019-04-11T14:24:55.407Z,8.10
2019-04-11T14:27:26.236Z,8.20
2019-04-11T14:30:07.652Z,8.10
2019-04-11T14:32:40.207Z,8.10
2019-04-11T14:35:33.923Z,8.20
2019-04-11T14:38:22.454Z,8.00
2019-04-11T14:41:12.440Z,8.00
2019-04-11T14:43:55.214Z,8.00
2019-04-11T14:46:42.032Z,8.00
2019-04-11T14:49:15.247Z,7.90
2019-04-11T14:52:01.940Z,7.90
2019-04-11T14:54:42.572Z,7.90
2019-04-11T14:57:33.547Z,7.90
2019-04-11T15:00:10.765Z,7.90
2019-04-11T15:02:54.097Z,7.90
2019-04-11T15:05:56.848Z,7.80
2019-04-11T15:08:43.387Z,7.80
2019-04-11T15:11:43.209Z,7.80
2019-04-11T15:14:22.764Z,7.80
2019-04-11T15:17:09.087Z,7.70
2019-04-11T15:19:37.940Z,7.70
2019-04-11T15:22:40.741Z,7.80
2019-04-11T15:25:30.508Z,7.90
2019-04-11T15:28:12.632Z,7.90
2019-04-11T15:30:49.637Z,7.80
2019-04-11T15:33:52.672Z,7.80
2019-04-11T15:36:21.873Z,7.70
2019-04-11T15:39:16.272Z,7.70
2019-04-11T15:41:45.068Z,7.70
2019-04-11T15:44:45.185Z,7.60
2019-04-11T15:47:18.786Z,7.70
2019-04-11T15:50:11.073Z,7.70
2019-04-11T15:52:44.834Z,7.70
2019-04-11T15:55:37.491Z,7.70
2019-04-11T15:58:07.352Z,7.70
2019-04-11T16:00:58.459Z,7.70
2019-04-11T16:03:27.344Z,7.80
2019-04-11T16:06:20.965Z,7.70
2019-04-11T16:08:52.553Z,7.80
2019-04-11T16:11:52.333Z,7.80
2019-04-11T16:14:41.502Z,7.70
2019-04-11T16:17:35.300Z,7.80
2019-04-11T16:20:19.861Z,7.80
2019-04-11T16:23:11.158Z,7.70
2019-04-11T16:25:42.946Z,7.50
2019-04-11T16:28:38.235Z,7.30
2019-04-11T16:31:09.801Z,7.10
2019-04-11T16:33:49.870Z,7.00
2019-04-11T16:36:27.292Z,7.00
2019-04-11T16:39:14.466Z,6.90
2019-04-11T16:42:14.898Z,6.70
2019-04-11T16:45:05.878Z,6.70
2019-04-11T16:47:53.776Z,6.80
2019-04-11T16:50:23.586Z,6.80
2019-04-11T16:52:52.682Z,6.70
2019-04-11T16:55:21.656Z,6.70
2019-04-11T16:57:50.689Z,6.70
2019-04-11T17:00:20.613Z,6.70
2019-04-11T17:02:54.752Z,6.70
2019-04-11T17:05:24.042Z,6.60
2019-04-11T17:08:14.796Z,6.70
2019-04-11T17:11:01.792Z,6.60
2019-04-11T17:13:32.440Z,6.50
2019-04-11T17:16:02.147Z,6.40
2019-04-11T17:18:33.949Z,6.50
2019-04-11T17:21:01.856Z,6.50
2019-04-11T17:23:30.901Z,6.50
2019-04-11T17:25:59.948Z,6.50
2019-04-11T17:28:34.458Z,6.40
2019-04-11T17:31:04.833Z,6.40
2019-04-11T17:33:33.929Z,6.30
2019-04-11T17:36:03.070Z,6.40
2019-04-11T17:38:32.349Z,6.30
2019-04-11T17:41:01.462Z,6.30
2019-04-11T17:43:35.600Z,6.50
2019-04-11T17:46:13.871Z,6.40
2019-04-11T17:48:44.643Z,6.50
2019-04-11T17:51:21.959Z,6.40
2019-04-11T17:54:25.529Z,6.40
2019-04-11T17:57:30.062Z,6.40
2019-04-11T18:03:28.358Z,6.40
2019-04-11T18:05:57.196Z,6.30
2019-04-11T18:08:26.601Z,6.30
2019-04-11T18:10:55.960Z,6.30
2019-04-11T18:13:30.583Z,6.30
2019-04-11T18:15:56.381Z,6.40
2019-04-11T18:18:25.549Z,6.40
2019-04-11T18:20:55.059Z,6.40
2019-04-11T18:23:27.408Z,6.30
2019-04-11T18:25:56.767Z,6.20
2019-04-11T18:28:25.795Z,6.10
2019-04-11T18:30:55.942Z,6.10
2019-04-11T18:33:25.007Z,6.10
2019-04-11T18:35:54.305Z,6.10
2019-04-11T18:38:23.646Z,6.20
2019-04-11T18:40:55.952Z,6.10
2019-04-11T18:43:29.155Z,6.00
2019-04-11T18:50:14.051Z,5.90
2019-04-11T18:52:43.519Z,5.90
2019-04-11T18:55:13.294Z,5.80
2019-04-11T18:57:42.605Z,5.80
2019-04-11T19:00:16.192Z,5.80
2019-04-11T19:02:45.225Z,5.80
2019-04-11T19:05:14.310Z,5.80
2019-04-11T19:07:43.598Z,5.80
2019-04-11T19:10:14.876Z,5.90
2019-04-11T19:12:46.364Z,5.80
2019-04-11T19:15:16.675Z,5.80
2019-04-11T19:17:47.079Z,5.80
2019-04-11T19:20:18.838Z,5.70
2019-04-11T19:22:48.120Z,5.80
2019-04-11T19:25:17.075Z,5.70
2019-04-11T19:27:53.309Z,5.70
2019-04-11T19:30:19.510Z,5.70
2019-04-11T19:32:48.854Z,5.60
2019-04-11T19:35:17.711Z,5.50
2019-04-11T19:37:49.419Z,5.60
2019-04-11T19:40:18.550Z,5.60
2019-04-11T19:42:49.237Z,5.70
2019-04-11T19:45:19.612Z,5.70
2019-04-11T19:47:51.715Z,5.80
2019-04-11T19:50:20.354Z,5.80
2019-04-11T19:52:49.555Z,5.80
2019-04-11T19:55:29.700Z,5.70
2019-04-11T19:57:59.119Z,5.70
2019-04-11T20:00:28.738Z,5.80
2019-04-11T20:02:58.185Z,5.90
2019-04-11T20:05:27.302Z,5.90
2019-04-11T20:07:56.298Z,5.90
2019-04-11T20:10:25.382Z,5.90
2019-04-11T20:12:54.262Z,6.00
2019-04-11T20:15:23.161Z,6.00
2019-04-11T20:17:53.298Z,6.00
2019-04-11T20:20:22.338Z,6.00
2019-04-11T20:22:58.954Z,6.00
2019-04-11T20:25:21.922Z,6.10
2019-04-11T20:27:51.339Z,6.10
2019-04-11T20:30:20.158Z,6.00
2019-04-11T20:32:49.202Z,6.00
2019-04-11T20:35:28.410Z,6.00
2019-04-11T20:37:48.577Z,6.10
2019-04-11T20:40:20.450Z,6.10
2019-04-11T20:42:48.093Z,6.10
2019-04-11T20:45:17.844Z,6.00
2019-04-11T20:47:49.428Z,5.90
2019-04-11T20:50:18.904Z,5.90
2019-04-11T20:52:47.898Z,5.90
2019-04-11T20:55:16.880Z,5.90
2019-04-11T20:57:46.904Z,5.90
2019-04-11T21:00:16.180Z,5.90
2019-04-11T21:02:45.112Z,5.80
2019-04-11T21:05:14.060Z,5.90
2019-04-11T21:07:42.973Z,5.90
2019-04-11T21:10:15.065Z,5.80
2019-04-11T21:12:44.086Z,5.90
2019-04-11T21:15:13.190Z,5.90
2019-04-11T21:17:42.153Z,5.90
2019-04-11T21:20:12.197Z,5.80
2019-04-11T21:22:42.635Z,5.80
2019-04-11T21:25:12.135Z,5.70
2019-04-11T21:27:41.874Z,5.70
2019-04-11T21:30:11.502Z,5.60
2019-04-11T21:32:40.706Z,5.60
2019-04-11T21:35:09.768Z,5.60
2019-04-11T21:37:38.786Z,5.60
2019-04-11T21:40:07.838Z,5.60
2019-04-11T21:42:36.847Z,5.60
2019-04-11T21:45:06.868Z,5.50
2019-04-11T21:47:37.357Z,5.60
2019-04-11T21:50:09.522Z,5.60
2019-04-11T21:52:37.936Z,5.50
2019-04-11T21:55:07.022Z,5.60
2019-04-11T21:57:36.014Z,5.50
2019-04-11T22:00:08.796Z,5.40
2019-04-11T22:02:37.732Z,5.40
2019-04-11T22:05:06.852Z,5.40
2019-04-11T22:07:35.601Z,5.40
2019-04-11T22:10:07.239Z,5.30
2019-04-11T22:12:39.859Z,5.30
2019-04-11T22:15:06.799Z,5.30
2019-04-11T22:17:35.589Z,5.20
2019-04-11T22:20:04.974Z,5.20
2019-04-11T22:22:33.828Z,5.10
2019-04-11T22:25:02.764Z,5.10
2019-04-11T22:27:31.587Z,5.00
2019-04-11T22:30:00.436Z,5.10
2019-04-11T22:32:29.198Z,5.10
2019-04-11T22:34:59.123Z,5.10
2019-04-11T22:37:30.061Z,5.10
2019-04-11T22:40:01.685Z,5.00
2019-04-11T22:42:29.989Z,5.00
2019-04-11T22:44:58.743Z,4.90
2019-04-11T22:47:27.600Z,4.90
2019-04-11T22:49:56.385Z,4.90
2019-04-11T22:52:25.312Z,4.80
2019-04-11T22:54:54.133Z,4.70
2019-04-11T22:57:22.936Z,4.60
2019-04-11T22:59:51.946Z,4.50
2019-04-11T23:02:55.812Z,4.50
2019-04-11T23:05:25.618Z,4.40
2019-04-11T23:07:55.034Z,4.40
2019-04-11T23:10:24.846Z,4.20
2019-04-11T23:12:54.318Z,4.20
2019-04-11T23:15:24.149Z,4.10
2019-04-11T23:17:53.159Z,4.10
2019-04-11T23:20:22.029Z,4.00
2019-04-11T23:22:51.069Z,3.90
2019-04-11T23:25:19.859Z,3.80
2019-04-11T23:27:48.835Z,3.70
2019-04-11T23:30:18.435Z,3.70
2019-04-11T23:32:51.042Z,3.60
2019-04-11T23:35:21.176Z,3.60
2019-04-11T23:37:52.250Z,3.50
2019-04-11T23:40:21.949Z,3.50
2019-04-11T23:42:50.981Z,3.40
2019-04-11T23:45:23.434Z,3.30
2019-04-11T23:47:54.119Z,3.30
2019-04-11T23:50:24.864Z,3.30
2019-04-11T23:52:57.007Z,3.20
2019-04-11T23:55:24.169Z,3.10
2019-04-11T23:57:52.954Z,3.00
